Ft Sturla — IBXV — position and weather

sailwx.info

Track history (hours):
 
Tides and Currents Weather Stations Pressure Air Temp Water Temp Dewpoint Dewpoint Depression Visibility Wind Speed Wind Dir Waves Ship Positions

Ft Sturla

Last reported at 2015-Aug-28 12:33 UTC. Time now 2015-Aug-28 12:46 UTC.
Position N 36°13' E 014°17'.

Length 120 m; draft 6.4 m.

Type: Ship (hazmat cat C). MMSI: 247282200.

Date/timePositionNaut miles runAvg speedWind from/ knotsBaromVisibWave heightAir tempDewpointWater temp
2015-Aug-28 12:33N 36°13' E 014°17'1211.8
2015-Aug-28 11:33N 36°05' E 014°28'1211.6
2015-Aug-28 10:33N 35°57' E 014°39'10 9.8
2015-Aug-28 09:30N 35°48' E 014°35'2 0.1
2015-Aug-27 10:29N 35°49' E 014°33'7 7.0
2015-Aug-27 09:33N 35°54' E 014°38'1110.5
2015-Aug-27 08:33N 36°02' E 014°30'1211.7
2015-Aug-27 07:33N 36°09' E 014°19'1211.6
2015-Aug-27 06:33N 36°15' E 014°06'1211.9
2015-Aug-27 05:33N 36°19' E 013°53'1212.1
2015-Aug-27 04:33N 36°25' E 013°39'1312.5
2015-Aug-27 03:31N 36°30' E 013°25'1212.7
2015-Aug-27 02:33N 36°36' E 013°11'1312.9
2015-Aug-27 01:33N 36°42' E 012°57'1312.8
2015-Aug-27 00:33N 36°47' E 012°42'1212.5
2015-Aug-26 23:33N 36°52' E 012°28'1212.3
2015-Aug-26 22:33N 36°57' E 012°14'1212.2
2015-Aug-26 21:33N 37°02' E 012°00'1212.0
2015-Aug-26 20:33N 37°08' E 011°47'6411.8
2015-Aug-26 15:10N 37°30' E 010°32'711.8
2015-Aug-26 14:32N 37°32' E 010°23'44711.7
2015-Aug-25 00:26N 36°48' E 001°05'1213.1
2015-Aug-24 23:33N 36°46' E 000°51'1412.7
2015-Aug-24 22:27N 36°44' E 000°34'1212.3
2015-Aug-24 21:28N 36°42' E 000°19'1212.2
2015-Aug-24 20:30N 36°40' E 000°05'1212.2
2015-Aug-24 19:30N 36°38' W 000°10'1212.1
2015-Aug-24 18:32N 36°36' W 000°25'1312.1
2015-Aug-24 17:27N 36°34' W 000°41'43610.1
2015-Aug-22 22:09N 37°24' W 009°43'4912.5
2015-Aug-22 18:14N 38°11' W 009°58'912.6
2015-Aug-22 17:33N 38°20' W 010°00'1312.6
2015-Aug-22 16:33N 38°32' W 010°04'1313.3
2015-Aug-22 15:33N 38°45' W 010°06'1212.1
2015-Aug-22 14:33N 38°57' W 010°07'9 8.7
2015-Aug-22 13:33N 39°06' W 010°07'1212.1
2015-Aug-22 12:33N 39°18' W 010°07'329 8.9
2015-Aug-20 23:33N 43°46' W 005°52'1111.1
2015-Aug-20 22:33N 43°40' W 005°39'6 0.3
2015-Aug-19 21:22N 43°34' W 005°42'2 2.0
2015-Aug-19 20:33N 43°35' W 005°40'9 8.9
2015-Aug-19 19:33N 43°38' W 005°29'1212.0
2015-Aug-19 18:33N 43°38' W 005°12'  
Track history (hours):
 
Tides and Currents Weather Stations Pressure Air Temp Water Temp Dewpoint Dewpoint Depression Visibility Wind Speed Wind Dir Waves Ship Positions

Ft Sturla

Last reported at 2015-Aug-28 12:33 UTC. Time now 2015-Aug-28 12:46 UTC.
Position N 36°13' E 014°17'.

Length 120 m; draft 6.4 m.

Type: Ship (hazmat cat C). MMSI: 247282200.

Date/timePositionNaut miles runAvg speedWind from/ knotsBaromVisibWave heightAir tempDewpointWater temp
2015-Aug-28 12:33N 36°13' E 014°17'1211.8
2015-Aug-28 11:33N 36°05' E 014°28'1211.6
2015-Aug-28 10:33N 35°57' E 014°39'10 9.8
2015-Aug-28 09:30N 35°48' E 014°35'2 0.1
2015-Aug-27 10:29N 35°49' E 014°33'7 7.0
2015-Aug-27 09:33N 35°54' E 014°38'1110.5
2015-Aug-27 08:33N 36°02' E 014°30'1211.7
2015-Aug-27 07:33N 36°09' E 014°19'1211.6
2015-Aug-27 06:33N 36°15' E 014°06'1211.9
2015-Aug-27 05:33N 36°19' E 013°53'1212.1
2015-Aug-27 04:33N 36°25' E 013°39'1312.5
2015-Aug-27 03:31N 36°30' E 013°25'1212.7
2015-Aug-27 02:33N 36°36' E 013°11'1312.9
2015-Aug-27 01:33N 36°42' E 012°57'1312.8
2015-Aug-27 00:33N 36°47' E 012°42'1212.5
2015-Aug-26 23:33N 36°52' E 012°28'1212.3
2015-Aug-26 22:33N 36°57' E 012°14'1212.2
2015-Aug-26 21:33N 37°02' E 012°00'1212.0
2015-Aug-26 20:33N 37°08' E 011°47'6411.8
2015-Aug-26 15:10N 37°30' E 010°32'711.8
2015-Aug-26 14:32N 37°32' E 010°23'44711.7
2015-Aug-25 00:26N 36°48' E 001°05'1213.1
2015-Aug-24 23:33N 36°46' E 000°51'1412.7
2015-Aug-24 22:27N 36°44' E 000°34'1212.3
2015-Aug-24 21:28N 36°42' E 000°19'1212.2
2015-Aug-24 20:30N 36°40' E 000°05'1212.2
2015-Aug-24 19:30N 36°38' W 000°10'1212.1
2015-Aug-24 18:32N 36°36' W 000°25'1312.1
2015-Aug-24 17:27N 36°34' W 000°41'43610.1
2015-Aug-22 22:09N 37°24' W 009°43'4912.5
2015-Aug-22 18:14N 38°11' W 009°58'912.6
2015-Aug-22 17:33N 38°20' W 010°00'1312.6
2015-Aug-22 16:33N 38°32' W 010°04'1313.3
2015-Aug-22 15:33N 38°45' W 010°06'1212.1
2015-Aug-22 14:33N 38°57' W 010°07'9 8.7
2015-Aug-22 13:33N 39°06' W 010°07'1212.1
2015-Aug-22 12:33N 39°18' W 010°07'329 8.9
2015-Aug-20 23:33N 43°46' W 005°52'1111.1
2015-Aug-20 22:33N 43°40' W 005°39'6 0.3
2015-Aug-19 21:22N 43°34' W 005°42'2 2.0
2015-Aug-19 20:33N 43°35' W 005°40'9 8.9
2015-Aug-19 19:33N 43°38' W 005°29'1212.0
2015-Aug-19 18:33N 43°38' W 005°12'  

Dump ship's entire track history